Terminal Aerodrome Forecast
Issued by NWS

Home | Current Version | Previous Version | Text Only | Print | Product List | Glossary On
Versions: 1 2 3 4 5 6 7 8 9 10 11 12 13 14 15 16 17 18 19 20 21 22 23 24 25
000
FTUS44 KOUN 070539
TAFGAG
TAF
KGAG 070539Z 0706/0806 18015G22KT P6SM FEW025
     FM071000 18015G22KT P6SM BKN015
     FM071500 18018G25KT P6SM SCT035
     FM080100 16009KT P6SM FEW050 SCT250=

USA.gov is the U.S. government's official web portal to all federal, state and local government web resources and services.